Time;durP1;ratioP1;P1;durP2;ratioP2;P2;SDS_P1;SDS_P2;PMS_P1;PMS_P2;Temp;Humidity;BMP_temperature;BMP_pressure;BME280_temperature;BME280_humidity;BME280_pressure;Samples;Min_cycle;Max_cycle;Signal;HPM_P1;HPM_P2
2022/08/23 00:02:08;;;;;;;5.40;2.67;;;25.20;65.60;;;;;;5072912;28;20168;-91
2022/08/23 00:04:39;;;;;;;3.50;2.90;;;25.20;65.80;;;;;;5056440;28;20190;-91
2022/08/23 00:07:07;;;;;;;4.87;3.10;;;25.10;65.70;;;;;;5055492;28;20230;-91
2022/08/23 00:09:33;;;;;;;3.10;2.80;;;25.10;65.90;;;;;;5071312;28;20208;-91
2022/08/23 00:12:16;;;;;;;3.27;2.97;;;25.10;66.20;;;;;;5055521;28;20179;-91
2022/08/23 00:14:47;;;;;;;4.20;3.00;;;25.10;65.80;;;;;;5073036;28;20615;-91
2022/08/23 00:17:14;;;;;;;4.80;2.80;;;25.10;66.10;;;;;;5072033;28;20210;-91
2022/08/23 00:19:41;;;;;;;4.10;2.90;;;25.10;65.80;;;;;;5071179;28;20506;-91
2022/08/23 00:22:07;;;;;;;5.03;2.93;;;25.10;66.20;;;;;;5055772;28;20172;-91
2022/08/23 00:24:34;;;;;;;3.10;2.80;;;25.10;66.60;;;;;;5071897;28;20596;-91
2022/08/23 00:27:13;;;;;;;4.73;2.80;;;25.00;66.60;;;;;;5055147;28;20176;-91
2022/08/23 00:29:46;;;;;;;2.60;2.40;;;25.00;66.40;;;;;;5052103;28;20209;-91
2022/08/23 00:32:15;;;;;;;3.93;3.53;;;25.00;66.60;;;;;;5052643;28;20171;-91
2022/08/23 00:34:41;;;;;;;7.77;3.47;;;25.10;66.50;;;;;;5053307;28;20558;-90
2022/08/23 00:37:08;;;;;;;3.53;2.93;;;25.10;67.60;;;;;;5053693;28;20174;-91
2022/08/23 00:39:34;;;;;;;4.80;3.03;;;25.00;67.40;;;;;;5070376;28;20412;-91
2022/08/23 00:47:47;;;;;;;3.33;2.87;;;25.00;67.00;;;;;;5073671;28;20197;-91
2022/08/23 00:50:21;;;;;;;3.40;2.67;;;25.10;66.60;;;;;;5056673;28;20218;-91
2022/08/23 00:53:02;;;;;;;3.27;2.80;;;25.10;66.30;;;;;;5056787;28;20171;-91
2022/08/23 00:55:28;;;;;;;3.10;2.80;;;25.10;66.10;;;;;;5056479;28;20270;-91
2022/08/23 00:57:55;;;;;;;3.43;3.00;;;25.10;65.90;;;;;;5074117;28;20163;-88
2022/08/23 01:00:21;;;;;;;3.70;2.70;;;25.10;65.90;;;;;;5056087;28;20266;-88
2022/08/23 01:02:49;;;;;;;4.13;3.10;;;25.10;66.70;;;;;;5057292;28;20176;-88
2022/08/23 01:05:15;;;;;;;3.10;2.80;;;25.00;67.40;;;;;;5056015;28;20324;-88
2022/08/23 01:08:01;;;;;;;4.27;3.20;;;25.00;67.50;;;;;;5042098;28;20535;-88
2022/08/23 01:10:35;;;;;;;3.30;2.67;;;25.00;67.30;;;;;;5035344;28;20235;-89
2022/08/23 01:13:14;;;;;;;3.30;3.00;;;25.00;67.30;;;;;;5028620;28;20245;-88
2022/08/23 01:22:46;;;;;;;4.27;3.10;;;24.90;66.90;;;;;;5062296;28;20189;-88
2022/08/23 01:25:17;;;;;;;4.90;3.10;;;25.00;66.80;;;;;;5044501;28;20259;-88
2022/08/23 01:27:44;;;;;;;3.80;3.07;;;25.00;66.60;;;;;;5041358;28;20346;-88
2022/08/23 01:30:12;;;;;;;4.87;2.80;;;25.00;66.70;;;;;;5050890;28;20218;-90
2022/08/23 01:32:54;;;;;;;3.40;3.00;;;24.90;66.70;;;;;;5065172;28;20538;-91
2022/08/23 01:35:30;;;;;;;6.33;3.70;;;25.00;67.00;;;;;;5067488;28;20152;-90
2022/08/23 01:37:56;;;;;;;3.57;3.23;;;24.90;67.80;;;;;;5033403;28;20170;-91
2022/08/23 01:40:24;;;;;;;3.43;2.93;;;24.80;67.80;;;;;;5012867;28;20168;-91
2022/08/23 01:43:44;;;;;;;3.80;3.27;;;24.90;68.10;;;;;;5065014;28;20262;-91
2022/08/23 01:46:27;;;;;;;7.27;3.30;;;24.80;68.20;;;;;;5036683;28;20179;-91
2022/08/23 01:48:54;;;;;;;3.50;3.20;;;24.80;68.20;;;;;;5041881;28;20266;-91
2022/08/23 01:51:21;;;;;;;4.00;3.03;;;24.80;68.10;;;;;;5048239;28;20515;-90
2022/08/23 01:57:17;;;;;;;3.97;3.00;;;24.80;68.80;;;;;;5069243;28;20476;-91
2022/08/23 01:59:43;;;;;;;3.53;3.10;;;24.70;69.30;;;;;;5037416;28;20625;-90
2022/08/23 02:02:09;;;;;;;3.47;3.10;;;24.70;69.30;;;;;;5050762;28;20179;-91
2022/08/23 02:04:35;;;;;;;3.47;3.00;;;24.70;69.20;;;;;;5051340;28;20264;-91
2022/08/23 02:07:01;;;;;;;5.00;3.00;;;24.80;69.10;;;;;;5053218;28;20187;-90
2022/08/23 02:09:27;;;;;;;3.10;2.73;;;24.80;68.80;;;;;;5054269;28;20219;-91
2022/08/23 02:11:53;;;;;;;4.90;2.90;;;24.80;68.90;;;;;;5049846;28;20297;-90
2022/08/23 02:17:54;;;;;;;4.03;3.63;;;24.80;69.30;;;;;;5058940;28;20167;-91
2022/08/23 02:20:23;;;;;;;3.73;3.30;;;24.80;69.30;;;;;;5046226;28;20373;-91
2022/08/23 02:22:49;;;;;;;5.33;3.80;;;24.70;70.30;;;;;;5044939;28;20444;-90
2022/08/23 02:25:15;;;;;;;3.50;3.20;;;24.70;73.90;;;;;;5032553;28;20183;-90
2022/08/23 02:27:41;;;;;;;4.30;3.30;;;24.50;74.00;;;;;;5062538;28;20225;-90
2022/08/23 02:31:20;;;;;;;4.03;3.00;;;24.50;73.40;;;;;;5024458;28;20682;-91
2022/08/23 02:33:52;;;;;;;3.33;2.70;;;24.50;73.10;;;;;;4928643;28;20207;-90
2022/08/23 02:36:18;;;;;;;4.40;3.00;;;24.60;72.60;;;;;;4939549;28;20182;-91
2022/08/23 02:38:43;;;;;;;3.97;2.97;;;24.60;72.20;;;;;;4925347;28;20278;-91
2022/08/23 02:41:09;;;;;;;3.40;3.10;;;24.60;72.10;;;;;;4966762;28;20238;-90
2022/08/23 02:43:36;;;;;;;3.43;3.00;;;24.60;71.90;;;;;;5026358;28;20570;-90
2022/08/23 02:46:05;;;;;;;4.30;3.20;;;24.60;71.90;;;;;;5041199;28;20343;-90
2022/08/23 02:48:34;;;;;;;3.60;3.20;;;24.60;71.70;;;;;;5041038;28;20178;-90
2022/08/23 02:51:03;;;;;;;3.47;3.00;;;24.60;71.80;;;;;;5041729;28;20195;-90
2022/08/23 02:53:29;;;;;;;3.50;2.80;;;24.60;71.80;;;;;;5054744;28;20206;-91
2022/08/23 02:55:56;;;;;;;3.00;2.70;;;24.60;71.90;;;;;;5058037;28;20195;-91
2022/08/23 02:58:22;;;;;;;3.67;2.97;;;24.60;72.00;;;;;;5040335;28;20167;-91
2022/08/23 03:00:48;;;;;;;3.20;2.90;;;24.60;72.70;;;;;;5062215;28;20249;-90
2022/08/23 03:03:15;;;;;;;3.17;2.87;;;24.60;72.20;;;;;;5050668;28;20180;-91
2022/08/23 03:05:42;;;;;;;3.30;3.00;;;24.60;72.40;;;;;;5039720;28;20595;-90
2022/08/23 03:08:07;;;;;;;5.07;3.00;;;24.60;72.40;;;;;;5052229;28;20512;-91
2022/08/23 03:10:41;;;;;;;3.93;3.50;;;24.60;72.70;;;;;;5016042;28;20215;-90
2022/08/23 03:13:06;;;;;;;3.10;2.80;;;24.60;72.50;;;;;;5048746;28;20168;-90
2022/08/23 03:15:32;;;;;;;3.03;2.73;;;24.50;72.70;;;;;;5043385;28;20202;-89
2022/08/23 03:17:58;;;;;;;3.83;2.90;;;24.50;72.70;;;;;;5033505;28;20215;-89
2022/08/23 03:21:20;;;;;;;3.60;3.00;;;24.50;72.70;;;;;;5043553;28;20167;-89
2022/08/23 03:23:47;;;;;;;3.60;3.00;;;24.50;72.80;;;;;;5047948;28;20180;-89
2022/08/23 03:26:15;;;;;;;5.37;2.97;;;24.50;73.20;;;;;;5049050;28;20425;-89
2022/08/23 03:35:25;;;;;;;3.10;2.80;;;24.40;73.60;;;;;;5065870;28;20438;-89
2022/08/23 03:38:34;;;;;;;3.23;2.93;;;24.40;74.10;;;;;;5041678;28;20568;-89
2022/08/23 03:41:09;;;;;;;4.67;3.47;;;24.30;74.40;;;;;;5045180;28;20178;-89
2022/08/23 03:43:35;;;;;;;4.53;3.50;;;24.30;75.50;;;;;;5049044;28;20236;-89
2022/08/23 03:46:01;;;;;;;5.20;3.60;;;24.20;75.70;;;;;;5050393;28;20176;-89
2022/08/23 03:48:27;;;;;;;3.70;3.40;;;24.10;76.70;;;;;;5049286;28;20171;-89
2022/08/23 03:51:28;;;;;;;4.97;3.50;;;24.10;76.70;;;;;;5062686;28;20207;-89
2022/08/23 03:53:57;;;;;;;6.13;3.93;;;24.00;78.00;;;;;;5040418;28;20257;-89
2022/08/23 03:56:34;;;;;;;3.70;3.00;;;24.00;78.20;;;;;;5025284;28;20170;-89
2022/08/23 03:59:22;;;;;;;5.70;3.20;;;24.00;77.50;;;;;;5037879;28;20273;-89
2022/08/23 04:01:48;;;;;;;3.50;3.20;;;23.90;77.10;;;;;;5061151;28;20289;-89
2022/08/23 04:04:14;;;;;;;5.27;3.17;;;24.00;76.70;;;;;;5038414;28;20617;-89
2022/08/23 04:06:44;;;;;;;3.60;3.13;;;24.00;76.30;;;;;;5044087;28;20276;-89
2022/08/23 04:09:28;;;;;;;3.30;3.00;;;23.90;76.10;;;;;;5008276;28;20209;-89
2022/08/23 04:11:54;;;;;;;4.93;3.13;;;23.90;75.90;;;;;;4976683;28;20193;-89
2022/08/23 04:14:49;;;;;;;3.53;2.60;;;23.90;75.70;;;;;;5002262;28;20488;-89
2022/08/23 04:17:16;;;;;;;5.13;3.10;;;23.90;75.20;;;;;;5002710;28;20481;-89
2022/08/23 04:19:42;;;;;;;5.03;3.47;;;24.00;74.60;;;;;;5003082;28;20186;-89
2022/08/23 04:22:12;;;;;;;3.30;3.00;;;24.00;73.70;;;;;;5006054;28;20180;-91
2022/08/23 04:28:00;;;;;;;3.63;2.70;;;23.90;74.20;;;;;;4996864;28;20226;-91
2022/08/23 04:30:26;;;;;;;3.53;2.93;;;23.90;73.50;;;;;;5001169;28;20224;-91
2022/08/23 04:33:20;;;;;;;4.77;3.40;;;24.00;72.90;;;;;;4988096;28;20184;-91
2022/08/23 04:36:45;;;;;;;6.40;3.50;;;24.00;71.60;;;;;;5007075;28;20180;-91
2022/08/23 04:39:12;;;;;;;3.27;2.70;;;23.90;71.20;;;;;;4983175;28;20200;-91
2022/08/23 04:42:55;;;;;;;3.87;2.80;;;23.90;72.10;;;;;;5045161;28;20179;-91
2022/08/23 04:45:51;;;;;;;3.40;3.10;;;23.90;71.60;;;;;;4968880;28;20209;-91
2022/08/23 04:48:22;;;;;;;4.73;2.90;;;23.90;70.40;;;;;;5075398;28;20197;-91
2022/08/23 04:50:48;;;;;;;5.47;3.10;;;23.90;71.00;;;;;;5090015;28;20209;-91
2022/08/23 04:53:17;;;;;;;3.63;3.07;;;23.90;70.80;;;;;;5089185;28;20181;-91
2022/08/23 04:55:45;;;;;;;4.90;3.17;;;23.90;70.70;;;;;;5084990;28;20177;-91
2022/08/23 04:58:11;;;;;;;4.67;3.67;;;23.90;70.70;;;;;;5087585;28;20169;-88
2022/08/23 05:00:38;;;;;;;3.77;2.83;;;23.90;70.40;;;;;;5087762;28;20178;-89
2022/08/23 05:03:03;;;;;;;3.10;2.83;;;23.90;70.30;;;;;;5085619;28;20432;-89
2022/08/23 05:05:29;;;;;;;3.63;2.87;;;23.90;70.00;;;;;;5091564;28;20176;-89
2022/08/23 05:07:55;;;;;;;3.40;3.10;;;24.00;69.70;;;;;;5090021;28;20330;-89
2022/08/23 05:10:21;;;;;;;3.37;2.90;;;24.00;69.50;;;;;;5094742;28;20212;-89
2022/08/23 05:12:49;;;;;;;3.47;3.17;;;24.00;69.20;;;;;;5087845;28;20482;-89
2022/08/23 05:15:16;;;;;;;4.73;2.97;;;24.10;69.00;;;;;;5079308;28;20420;-89
2022/08/23 05:17:42;;;;;;;3.70;3.17;;;24.20;68.80;;;;;;5095617;28;20611;-89
2022/08/23 05:20:09;;;;;;;2.90;2.60;;;24.20;68.50;;;;;;5092828;28;20578;-89
2022/08/23 05:22:43;;;;;;;3.30;3.00;;;24.30;68.20;;;;;;5084757;28;20173;-89
2022/08/23 05:25:12;;;;;;;4.40;3.00;;;24.40;67.90;;;;;;5094144;28;20192;-89
2022/08/23 05:27:41;;;;;;;5.33;3.07;;;24.40;67.30;;;;;;5112670;28;20456;-89
2022/08/23 05:30:08;;;;;;;3.13;2.83;;;24.50;66.70;;;;;;5094886;28;20475;-89
2022/08/23 05:32:40;;;;;;;3.30;3.00;;;24.50;66.10;;;;;;5091979;28;20265;-89
2022/08/23 05:35:08;;;;;;;4.70;3.20;;;24.60;65.90;;;;;;5111173;28;20190;-89
2022/08/23 05:37:37;;;;;;;3.60;2.80;;;24.70;65.40;;;;;;5106952;28;20241;-89
2022/08/23 05:40:03;;;;;;;3.57;2.80;;;24.80;64.20;;;;;;5089300;28;20359;-89
2022/08/23 05:42:32;;;;;;;5.07;3.20;;;24.90;63.30;;;;;;5090920;28;20170;-89
2022/08/23 05:44:59;;;;;;;4.33;3.20;;;25.00;63.00;;;;;;5093530;28;20555;-89
2022/08/23 05:47:26;;;;;;;5.00;2.90;;;25.20;61.90;;;;;;5092847;28;20186;-89
2022/08/23 05:49:52;;;;;;;3.07;2.77;;;25.30;61.10;;;;;;5094497;28;20434;-89
2022/08/23 05:52:18;;;;;;;3.63;2.70;;;25.40;60.20;;;;;;5091039;28;20173;-89
2022/08/23 05:54:43;;;;;;;6.10;3.93;;;25.50;59.70;;;;;;5091237;28;20291;-89
2022/08/23 05:57:10;;;;;;;6.90;3.30;;;25.60;60.90;;;;;;5091042;28;20600;-89
2022/08/23 05:59:35;;;;;;;6.20;3.57;;;25.70;62.10;;;;;;5089351;28;20649;-90
2022/08/23 06:02:01;;;;;;;4.10;3.10;;;25.80;61.10;;;;;;5086728;28;20170;-89
2022/08/23 06:04:30;;;;;;;5.67;3.00;;;25.90;60.10;;;;;;5092387;28;20655;-89
2022/08/23 06:06:59;;;;;;;4.47;3.27;;;26.00;59.40;;;;;;5108254;28;20356;-89
2022/08/23 06:09:27;;;;;;;6.50;3.47;;;26.20;58.80;;;;;;5089061;28;20445;-89
2022/08/23 06:11:53;;;;;;;4.57;3.10;;;26.30;58.30;;;;;;5089685;28;20206;-89
2022/08/23 06:14:22;;;;;;;6.13;3.20;;;26.40;57.80;;;;;;5088184;28;20412;-89
2022/08/23 06:16:51;;;;;;;4.67;3.47;;;26.50;57.40;;;;;;5087813;28;20171;-89
2022/08/23 06:19:17;;;;;;;4.07;3.47;;;26.70;56.80;;;;;;5075430;28;20170;-89
2022/08/23 06:21:44;;;;;;;5.47;3.13;;;26.80;56.50;;;;;;5106335;28;20166;-89
2022/08/23 06:24:11;;;;;;;5.37;3.07;;;27.00;56.10;;;;;;5106362;28;20455;-89
2022/08/23 06:26:41;;;;;;;6.07;3.17;;;27.20;55.70;;;;;;5088688;28;20398;-89
2022/08/23 06:29:16;;;;;;;4.87;3.10;;;27.40;55.20;;;;;;5076693;28;20579;-89
2022/08/23 06:31:47;;;;;;;5.70;3.20;;;27.80;54.70;;;;;;5086395;28;20166;-89
2022/08/23 06:34:25;;;;;;;5.20;3.00;;;28.20;53.90;;;;;;5087818;28;20201;-89
2022/08/23 06:36:55;;;;;;;5.23;3.33;;;28.80;53.00;;;;;;5087598;28;20193;-89
2022/08/23 06:39:31;;;;;;;4.20;3.27;;;29.30;52.10;;;;;;5087100;28;20285;-89
2022/08/23 06:42:03;;;;;;;5.87;2.77;;;29.80;51.20;;;;;;5088061;28;20174;-89
2022/08/23 06:44:31;;;;;;;3.17;2.80;;;30.20;50.50;;;;;;5088600;28;20184;-89
2022/08/23 06:46:57;;;;;;;4.20;2.87;;;30.60;49.80;;;;;;5087291;28;20482;-89
2022/08/23 06:49:30;;;;;;;2.80;2.50;;;30.90;49.20;;;;;;5089957;28;20523;-89
2022/08/23 06:52:05;;;;;;;4.10;2.80;;;31.20;49.10;;;;;;5085856;28;20540;-89
2022/08/23 06:54:34;;;;;;;5.83;2.87;;;31.50;48.20;;;;;;5086319;28;20255;-89
2022/08/23 06:57:02;;;;;;;4.83;2.80;;;31.90;47.60;;;;;;5087551;28;20182;-89
2022/08/23 06:59:28;;;;;;;4.87;2.70;;;32.10;47.20;;;;;;5088508;28;20559;-89
2022/08/23 07:01:59;;;;;;;3.83;2.53;;;32.50;46.80;;;;;;5088396;28;20219;-89
2022/08/23 07:04:29;;;;;;;3.60;2.70;;;32.70;46.40;;;;;;5085892;28;20178;-89
2022/08/23 07:07:00;;;;;;;3.25;2.53;;;32.90;46.00;;;;;;5103742;28;20174;-89
2022/08/23 07:09:27;;;;;;;4.65;2.83;;;33.20;45.70;;;;;;5087119;28;20633;-89
2022/08/23 07:12:03;;;;;;;5.85;2.72;;;33.40;45.30;;;;;;5087904;28;20178;-89
2022/08/23 07:14:29;;;;;;;3.40;2.50;;;33.50;45.50;;;;;;5106617;28;20170;-90
2022/08/23 07:17:01;;;;;;;3.45;2.60;;;33.70;44.80;;;;;;5086983;28;20208;-89
2022/08/23 07:19:33;;;;;;;4.75;2.42;;;33.80;44.70;;;;;;5109121;28;20499;-89
2022/08/23 07:22:04;;;;;;;4.45;2.70;;;34.10;44.40;;;;;;5088944;28;20601;-90
2022/08/23 07:24:31;;;;;;;2.72;2.38;;;34.30;44.20;;;;;;5088214;28;20171;-89
2022/08/23 07:29:46;;;;;;;2.90;2.60;;;34.60;43.70;;;;;;5101132;28;20594;-90
2022/08/23 07:32:43;;;;;;;4.25;2.97;;;34.80;43.50;;;;;;5084164;28;20174;-89
2022/08/23 07:35:10;;;;;;;4.43;2.65;;;35.10;43.10;;;;;;5042822;28;20162;-89
2022/08/23 07:37:38;;;;;;;2.88;2.42;;;35.30;43.00;;;;;;5074190;28;20170;-89
2022/08/23 07:40:06;;;;;;;2.75;2.38;;;35.30;42.80;;;;;;5078055;28;20219;-90
2022/08/23 07:42:35;;;;;;;3.05;2.58;;;35.50;42.70;;;;;;5080533;28;20176;-90
2022/08/23 07:45:04;;;;;;;3.88;2.63;;;35.60;42.50;;;;;;5082192;28;20232;-90
2022/08/23 07:47:36;;;;;;;3.28;2.95;;;35.70;42.30;;;;;;5055056;28;20373;-90
2022/08/23 07:50:04;;;;;;;3.90;3.30;;;36.00;42.10;;;;;;5056302;28;20686;-89
2022/08/23 07:52:34;;;;;;;4.18;3.00;;;36.20;41.90;;;;;;5102090;28;20336;-90
2022/08/23 07:55:03;;;;;;;3.40;2.55;;;36.20;41.70;;;;;;5084705;28;20170;-90
2022/08/23 07:57:31;;;;;;;3.25;2.95;;;36.40;41.60;;;;;;5067564;28;20631;-92
2022/08/23 08:00:04;;;;;;;4.68;2.60;;;36.60;41.40;;;;;;5074104;28;20170;-92
2022/08/23 08:02:30;;;;;;;3.88;2.75;;;36.70;41.20;;;;;;5083359;28;20174;-92
2022/08/23 08:04:55;;;;;;;5.10;2.75;;;36.80;41.10;;;;;;5084567;28;20207;-92
2022/08/23 08:07:21;;;;;;;3.55;2.70;;;36.90;41.00;;;;;;5101734;28;20174;-92
2022/08/23 08:09:50;;;;;;;3.00;2.70;;;37.00;40.90;;;;;;5087453;28;20194;-92
2022/08/23 08:12:19;;;;;;;4.10;2.80;;;37.10;40.80;;;;;;5076019;28;20397;-92
2022/08/23 08:14:47;;;;;;;4.65;3.10;;;37.20;40.80;;;;;;5075521;28;20174;-92
2022/08/23 08:17:17;;;;;;;3.42;2.80;;;37.30;40.80;;;;;;5070958;28;20305;-92
2022/08/23 08:19:43;;;;;;;2.85;2.60;;;37.30;40.70;;;;;;5083740;28;20580;-92
2022/08/23 08:22:09;;;;;;;4.13;2.78;;;37.40;40.60;;;;;;5079852;28;20182;-92
2022/08/23 08:24:34;;;;;;;2.88;2.60;;;37.50;40.60;;;;;;5076829;28;20555;-92
2022/08/23 08:27:00;;;;;;;4.53;2.90;;;37.70;40.50;;;;;;5075307;28;20322;-92
2022/08/23 08:29:26;;;;;;;4.05;2.80;;;37.90;40.30;;;;;;5081910;28;20210;-90
2022/08/23 08:31:52;;;;;;;3.45;2.83;;;37.80;40.30;;;;;;5080483;28;20182;-89
2022/08/23 08:34:18;;;;;;;3.85;2.78;;;38.00;40.20;;;;;;5082487;28;20512;-89
2022/08/23 08:36:45;;;;;;;3.17;2.88;;;38.10;40.10;;;;;;5085939;28;20166;-90
2022/08/23 08:39:20;;;;;;;3.17;2.72;;;38.20;40.00;;;;;;5083875;28;20173;-89
2022/08/23 08:42:09;;;;;;;3.63;2.90;;;38.30;39.80;;;;;;5101020;28;20257;-89
2022/08/23 08:48:03;;;;;;;4.63;2.80;;;38.50;39.70;;;;;;5100568;28;20474;-90
2022/08/23 08:50:43;;;;;;;3.30;3.00;;;38.60;39.60;;;;;;5089773;28;20226;-90
2022/08/23 08:53:24;;;;;;;3.50;2.95;;;38.80;39.50;;;;;;5084402;28;20346;-87
2022/08/23 08:56:13;;;;;;;4.72;2.90;;;38.90;39.40;;;;;;5088547;28;20554;-87
2022/08/23 08:58:50;;;;;;;6.32;3.25;;;39.00;39.40;;;;;;5065486;28;20166;-87
2022/08/23 09:01:19;;;;;;;3.42;2.90;;;39.00;39.20;;;;;;5081589;28;20251;-90
2022/08/23 09:03:49;;;;;;;3.78;2.80;;;39.10;39.20;;;;;;5089805;28;20225;-90
2022/08/23 09:06:24;;;;;;;3.25;3.00;;;39.20;39.10;;;;;;5069886;28;20501;-90
2022/08/23 09:09:16;;;;;;;3.47;2.88;;;39.20;39.10;;;;;;5091692;28;20217;-89
2022/08/23 09:12:05;;;;;;;3.83;3.53;;;39.20;39.00;;;;;;5041446;28;20222;-90
2022/08/23 09:14:37;;;;;;;6.72;3.30;;;39.30;39.00;;;;;;5071086;28;20252;-90
2022/08/23 09:17:09;;;;;;;3.40;2.80;;;39.40;39.00;;;;;;5083554;28;20186;-90
2022/08/23 09:19:40;;;;;;;3.97;3.22;;;39.40;38.90;;;;;;5082909;28;20177;-89
2022/08/23 09:22:17;;;;;;;5.20;3.13;;;39.40;38.90;;;;;;5080326;28;20570;-89
2022/08/23 09:24:46;;;;;;;4.38;3.40;;;39.50;38.90;;;;;;5085438;28;20170;-90
2022/08/23 09:27:16;;;;;;;4.30;3.50;;;39.40;37.50;;;;;;5083849;28;20259;-90
2022/08/23 09:30:04;;;;;;;3.10;2.90;;;39.50;38.50;;;;;;5071705;28;20330;-90
2022/08/23 09:32:40;;;;;;;5.15;3.00;;;39.60;38.50;;;;;;5083497;28;20169;-90
2022/08/23 09:35:25;;;;;;;3.60;3.22;;;39.60;38.30;;;;;;5094760;28;20194;-90
2022/08/23 09:38:20;;;;;;;3.00;2.80;;;39.60;38.30;;;;;;5080116;28;20323;-89
2022/08/23 09:40:49;;;;;;;4.35;3.20;;;39.60;38.50;;;;;;5084349;28;20174;-89
2022/08/23 09:43:17;;;;;;;4.05;3.25;;;39.50;38.40;;;;;;5085408;28;20174;-89
2022/08/23 09:45:49;;;;;;;4.13;3.00;;;39.40;38.50;;;;;;5083722;28;20177;-88
2022/08/23 09:48:33;;;;;;;3.65;3.30;;;39.40;38.60;;;;;;5079469;28;20182;-88
2022/08/23 09:51:22;;;;;;;3.67;3.38;;;39.40;38.70;;;;;;5082731;28;20193;-88
2022/08/23 09:54:08;;;;;;;4.97;3.00;;;39.30;38.70;;;;;;5074043;28;20293;-88
2022/08/23 09:56:43;;;;;;;3.58;3.28;;;39.20;38.80;;;;;;5104315;28;20185;-88
2022/08/23 09:59:41;;;;;;;3.60;3.20;;;38.90;38.90;;;;;;5086197;28;20236;-88
2022/08/23 10:05:48;;;;;;;3.72;3.28;;;37.80;39.20;;;;;;5103874;28;20577;-88
2022/08/23 10:08:31;;;;;;;3.25;2.95;;;36.70;39.90;;;;;;5059817;28;20178;-88
2022/08/23 10:11:20;;;;;;;6.47;3.67;;;36.00;40.30;;;;;;5100739;28;20205;-88
2022/08/23 10:13:50;;;;;;;4.13;3.28;;;35.30;40.90;;;;;;5086285;28;20162;-88
2022/08/23 10:16:46;;;;;;;4.32;3.75;;;34.80;41.30;;;;;;5083786;28;20196;-89
2022/08/23 10:19:48;;;;;;;3.63;3.30;;;34.30;41.70;;;;;;5074027;28;20586;-88
2022/08/23 10:22:19;;;;;;;4.18;3.15;;;34.00;42.20;;;;;;5085301;28;20505;-88
2022/08/23 10:24:54;;;;;;;5.38;3.00;;;33.80;42.40;;;;;;5104243;28;20166;-88
2022/08/23 10:30:26;;;;;;;6.07;3.03;;;33.30;42.90;;;;;;5054778;28;20310;-88
2022/08/23 10:32:54;;;;;;;3.13;2.80;;;33.10;43.10;;;;;;5060931;28;20193;-89
2022/08/23 10:35:57;;;;;;;8.55;3.03;;;33.00;43.30;;;;;;5102407;28;20163;-88
2022/08/23 10:38:56;;;;;;;10.32;3.70;;;32.70;43.50;;;;;;5080383;28;20440;-89
2022/08/23 10:41:59;;;;;;;4.07;2.83;;;32.70;44.40;;;;;;5088847;28;20362;-89
2022/08/23 10:44:46;;;;;;;3.70;2.90;;;32.70;44.20;;;;;;5078260;28;20305;-89
2022/08/23 10:47:30;;;;;;;6.07;3.15;;;32.70;44.30;;;;;;5082453;28;20316;-89
2022/08/23 10:49:59;;;;;;;6.32;2.95;;;32.60;44.40;;;;;;5072301;28;20267;-89
2022/08/23 10:52:35;;;;;;;4.75;2.72;;;32.50;44.50;;;;;;5078255;28;20364;-89
2022/08/23 10:55:15;;;;;;;4.22;2.60;;;32.40;44.50;;;;;;5084474;28;20181;-89
2022/08/23 10:57:52;;;;;;;5.85;3.30;;;32.40;44.60;;;;;;5088545;28;20304;-89
2022/08/23 11:00:24;;;;;;;3.42;2.88;;;32.40;44.70;;;;;;5085083;28;20170;-91
2022/08/23 11:03:18;;;;;;;3.38;2.90;;;32.40;44.70;;;;;;5100009;28;20282;-91
2022/08/23 11:06:25;;;;;;;4.40;2.83;;;32.40;44.90;;;;;;5077141;28;20216;-91
2022/08/23 11:09:16;;;;;;;3.60;2.85;;;32.20;45.00;;;;;;5082776;28;20240;-90
2022/08/23 11:12:03;;;;;;;3.78;2.85;;;32.10;45.20;;;;;;5067566;28;20261;-90
2022/08/23 11:15:00;;;;;;;5.00;3.15;;;32.00;45.70;;;;;;5077567;28;20467;-90
2022/08/23 11:17:33;;;;;;;4.43;2.83;;;32.00;45.50;;;;;;5083160;28;20174;-90
2022/08/23 11:20:04;;;;;;;3.15;2.90;;;32.00;45.50;;;;;;5077219;28;20474;-90
2022/08/23 11:22:35;;;;;;;5.05;2.92;;;32.00;45.60;;;;;;5079612;28;20438;-90
2022/08/23 11:25:08;;;;;;;3.95;2.90;;;32.00;45.60;;;;;;5085647;28;20163;-90
2022/08/23 11:27:41;;;;;;;3.90;3.10;;;31.90;45.60;;;;;;5093808;28;20249;-90
2022/08/23 11:30:33;;;;;;;3.58;3.05;;;31.90;45.70;;;;;;5073587;28;20421;-91
2022/08/23 11:33:18;;;;;;;3.05;2.75;;;31.80;45.60;;;;;;5076091;28;20760;-90
2022/08/23 11:35:49;;;;;;;5.43;3.40;;;31.80;45.70;;;;;;5081355;28;20170;-89
2022/08/23 11:38:36;;;;;;;2.90;2.60;;;31.80;45.80;;;;;;5080280;28;20390;-89
2022/08/23 11:41:13;;;;;;;3.55;3.25;;;31.80;45.80;;;;;;5080641;28;20170;-90
2022/08/23 11:43:48;;;;;;;4.35;3.20;;;31.80;45.90;;;;;;5092008;28;20170;-91
2022/08/23 11:46:20;;;;;;;5.78;3.10;;;31.70;46.00;;;;;;5070748;28;20491;-91
2022/08/23 11:48:58;;;;;;;3.53;2.70;;;31.70;46.00;;;;;;5083454;28;20266;-92
2022/08/23 11:54:49;;;;;;;4.30;2.80;;;31.70;45.70;;;;;;5103557;28;20178;-91
2022/08/23 11:57:21;;;;;;;6.22;2.92;;;31.70;43.70;;;;;;5088174;28;20292;-91
2022/08/23 11:59:58;;;;;;;4.43;2.70;;;31.70;45.20;;;;;;5085548;28;20170;-91
2022/08/23 12:02:39;;;;;;;4.90;3.30;;;31.70;45.50;;;;;;5080359;28;20170;-91
2022/08/23 12:05:15;;;;;;;2.65;2.40;;;31.60;45.70;;;;;;5101327;28;20182;-91
2022/08/23 12:08:15;;;;;;;3.25;2.60;;;31.60;45.70;;;;;;5081878;28;20257;-91
2022/08/23 12:10:41;;;;;;;2.80;2.53;;;31.60;45.70;;;;;;5086045;28;20201;-91
2022/08/23 12:13:22;;;;;;;3.05;2.75;;;31.60;45.90;;;;;;5103852;28;20177;-91
2022/08/23 12:16:27;;;;;;;4.40;3.30;;;31.60;45.90;;;;;;5097262;28;20170;-92
2022/08/23 12:19:03;;;;;;;3.53;2.53;;;31.50;45.90;;;;;;5101270;28;20147;-92
2022/08/23 12:21:44;;;;;;;3.70;2.95;;;31.50;46.00;;;;;;5085356;28;20181;-92
2022/08/23 12:27:52;;;;;;;4.80;2.83;;;31.50;45.60;;;;;;5015964;28;20798;-91
2022/08/23 12:30:22;;;;;;;3.10;2.80;;;31.50;45.90;;;;;;5077398;28;20517;-92
2022/08/23 12:33:17;;;;;;;4.47;3.10;;;31.50;46.00;;;;;;5082794;28;20404;-92
2022/08/23 12:39:07;;;;;;;4.25;2.80;;;31.40;46.00;;;;;;5099443;28;20177;-91
2022/08/23 12:41:54;;;;;;;3.30;2.95;;;31.50;46.10;;;;;;5083323;28;20449;-92
2022/08/23 12:44:26;;;;;;;2.83;2.55;;;31.50;46.30;;;;;;5081853;28;20234;-92
2022/08/23 12:47:07;;;;;;;4.03;3.15;;;31.50;46.30;;;;;;5084029;28;20166;-92
2022/08/23 12:53:07;;;;;;;4.40;2.78;;;31.50;46.30;;;;;;5098917;28;20174;-91
2022/08/23 12:55:40;;;;;;;3.83;2.95;;;31.50;46.40;;;;;;5086779;28;20622;-91
2022/08/23 12:58:07;;;;;;;4.95;3.08;;;31.50;46.40;;;;;;5085703;28;20437;-91
2022/08/23 13:00:38;;;;;;;5.28;3.35;;;31.50;46.20;;;;;;5083212;28;20652;-91
2022/08/23 13:03:29;;;;;;;3.25;2.65;;;31.40;44.40;;;;;;5100980;28;20173;-91
2022/08/23 13:05:59;;;;;;;3.75;2.92;;;31.50;46.10;;;;;;5084274;28;20174;-91
2022/08/23 13:08:36;;;;;;;4.80;2.92;;;31.40;46.20;;;;;;5075400;28;20576;-91
2022/08/23 13:11:10;;;;;;;3.30;2.78;;;31.40;46.40;;;;;;5068015;28;20344;-91
2022/08/23 13:13:48;;;;;;;5.53;2.95;;;31.40;46.10;;;;;;5069354;28;20174;-90
2022/08/23 13:16:32;;;;;;;7.10;2.90;;;31.40;46.30;;;;;;5082805;28;20465;-92
2022/08/23 13:19:16;;;;;;;3.08;2.75;;;31.30;46.30;;;;;;5082473;28;20170;-91
2022/08/23 13:21:45;;;;;;;3.42;2.90;;;31.30;46.30;;;;;;5085131;28;20171;-90
2022/08/23 13:24:35;;;;;;;2.92;2.50;;;31.30;46.40;;;;;;5103207;28;20166;-90
2022/08/23 13:27:19;;;;;;;3.85;3.00;;;31.30;46.50;;;;;;5088258;28;20167;-89
2022/08/23 13:29:58;;;;;;;3.13;2.70;;;31.30;46.40;;;;;;5084603;28;20530;-90
2022/08/23 13:32:43;;;;;;;5.30;2.80;;;31.30;45.80;;;;;;5082445;28;20413;-90
2022/08/23 13:35:37;;;;;;;3.92;2.30;;;31.30;46.10;;;;;;5088148;28;20166;-90
2022/08/23 13:38:05;;;;;;;2.78;2.47;;;31.30;42.60;;;;;;5084390;28;20199;-90
2022/08/23 13:41:11;;;;;;;3.65;2.40;;;31.30;44.30;;;;;;5081952;28;20174;-90
2022/08/23 13:44:08;;;;;;;3.20;2.80;;;31.30;45.30;;;;;;5085692;28;20189;-90
2022/08/23 13:46:43;;;;;;;3.97;2.58;;;31.30;45.30;;;;;;5066474;28;20224;-90
2022/08/23 13:49:14;;;;;;;2.78;2.40;;;31.40;45.30;;;;;;5065437;28;20309;-90
2022/08/23 13:52:11;;;;;;;4.18;3.00;;;31.40;45.70;;;;;;5077403;28;20226;-90
2022/08/23 13:54:40;;;;;;;2.67;2.42;;;31.30;45.70;;;;;;5058284;28;20316;-90
2022/08/23 13:57:16;;;;;;;5.38;2.67;;;31.30;45.80;;;;;;5065212;28;20216;-91
2022/08/23 14:00:08;;;;;;;3.13;2.65;;;31.30;45.10;;;;;;5064545;28;20672;-91
2022/08/23 14:02:36;;;;;;;3.67;2.30;;;31.20;41.60;;;;;;5066377;28;20696;-91
2022/08/23 14:05:05;;;;;;;2.50;2.30;;;31.20;44.50;;;;;;5064860;28;20430;-91
2022/08/23 14:07:30;;;;;;;2.60;2.38;;;31.20;45.20;;;;;;5064572;28;20167;-91
2022/08/23 14:09:56;;;;;;;3.70;2.60;;;31.20;45.40;;;;;;5067567;28;20696;-91
2022/08/23 14:12:27;;;;;;;2.60;2.40;;;31.20;45.60;;;;;;5065713;28;20182;-91
2022/08/23 14:14:57;;;;;;;2.15;2.00;;;31.20;45.70;;;;;;5066839;28;20575;-91
2022/08/23 14:17:26;;;;;;;3.35;2.63;;;31.20;45.70;;;;;;5067840;28;20559;-91
2022/08/23 14:19:55;;;;;;;3.45;2.58;;;31.30;45.90;;;;;;5064221;28;20396;-91
2022/08/23 14:22:21;;;;;;;2.78;2.25;;;31.20;45.80;;;;;;5064321;28;20388;-91